createdAt,value
2023-03-17T00:35:41.330Z,2.90
2023-03-17T00:54:20.175Z,2.70
2023-03-17T00:56:02.277Z,2.70
2023-03-17T01:08:03.853Z,2.60
2023-03-17T01:10:10.189Z,2.10
2023-03-17T02:31:49.047Z,2.10
2023-03-17T02:32:51.934Z,2.10
2023-03-17T02:33:58.885Z,2.60
2023-03-17T02:35:04.350Z,2.10
2023-03-17T02:36:07.829Z,2.20
2023-03-17T02:37:11.784Z,2.10
2023-03-17T02:38:14.222Z,3.50
2023-03-17T02:39:17.728Z,2.10
2023-03-17T02:40:20.829Z,2.10
2023-03-17T02:41:24.455Z,2.10
2023-03-17T02:42:27.174Z,2.30
2023-03-17T02:43:31.110Z,2.10
2023-03-17T02:44:33.494Z,2.20
2023-03-17T02:45:37.328Z,2.20
2023-03-17T02:46:40.009Z,2.10
2023-03-17T02:47:44.921Z,2.10
2023-03-17T02:48:47.828Z,2.30
2023-03-17T02:49:52.626Z,2.20
2023-03-17T02:50:55.219Z,2.20
2023-03-17T02:51:59.544Z,2.10
2023-03-17T02:53:02.287Z,2.20
2023-03-17T02:54:06.105Z,2.10
2023-03-17T02:55:10.574Z,2.10
2023-03-17T02:56:14.208Z,2.10
2023-03-17T02:57:16.906Z,1.70
2023-03-17T02:58:20.651Z,2.10
2023-03-17T02:59:24.613Z,2.10
2023-03-17T03:00:28.780Z,2.00
2023-03-17T03:01:32.876Z,2.10
2023-03-17T03:02:35.635Z,2.00
2023-03-17T03:03:40.944Z,2.10
2023-03-17T03:04:43.774Z,2.10
2023-03-17T03:05:49.072Z,2.10
2023-03-17T03:06:51.765Z,2.00
2023-03-17T03:07:55.475Z,2.00
2023-03-17T03:08:58.665Z,1.60
2023-03-17T03:10:02.414Z,2.00
2023-03-17T03:11:06.237Z,2.00
2023-03-17T03:12:11.543Z,2.00
2023-03-17T03:13:17.468Z,2.00
2023-03-17T03:14:21.250Z,2.00
2023-03-17T03:15:23.830Z,2.00
2023-03-17T03:16:27.253Z,2.00
2023-03-17T03:17:29.818Z,2.00
2023-03-17T03:18:34.027Z,2.00
2023-03-17T03:19:38.481Z,2.00
2023-03-17T03:20:44.837Z,2.00
2023-03-17T03:21:47.531Z,2.00
2023-03-17T03:22:51.174Z,1.40
2023-03-17T03:23:54.132Z,1.90
2023-03-17T03:24:58.282Z,1.90
2023-03-17T03:26:01.129Z,1.90
2023-03-17T03:27:04.887Z,1.90
2023-03-17T03:28:08.440Z,1.90
2023-03-17T03:29:11.865Z,1.90
2023-03-17T03:30:14.828Z,1.90
2023-03-17T03:31:18.832Z,1.90
2023-03-17T03:32:21.490Z,1.90
2023-03-17T03:33:25.058Z,1.90
2023-03-17T03:34:27.944Z,1.80
2023-03-17T03:35:34.650Z,1.90
2023-03-17T03:36:37.602Z,1.80
2023-03-17T03:37:41.010Z,1.80
2023-03-17T03:38:43.555Z,1.90
2023-03-17T03:39:47.769Z,1.80
2023-03-17T03:40:50.848Z,1.20
2023-03-17T03:41:57.500Z,1.90
2023-03-17T03:43:02.402Z,1.90
2023-03-17T03:44:09.496Z,1.80
2023-03-17T03:45:12.108Z,1.80
2023-03-17T03:46:16.098Z,1.80
2023-03-17T03:47:18.934Z,1.80
2023-03-17T03:48:23.617Z,1.80
2023-03-17T03:49:28.595Z,1.80
2023-03-17T03:50:33.414Z,1.80
2023-03-17T03:51:36.074Z,1.80
2023-03-17T03:52:39.657Z,1.80
2023-03-17T03:53:43.313Z,1.80
2023-03-17T03:54:46.025Z,1.80
2023-03-17T03:55:49.809Z,3.20
2023-03-17T03:56:55.478Z,1.80
2023-03-17T03:58:03.130Z,1.80
2023-03-17T03:59:06.237Z,1.80
2023-03-17T04:00:11.517Z,1.50
2023-03-17T04:01:17.794Z,0.60
2023-03-17T04:02:22.394Z,1.90
2023-03-17T04:03:25.417Z,1.90
2023-03-17T04:04:28.996Z,1.80
2023-03-17T04:05:34.732Z,1.80
2023-03-17T04:06:37.635Z,1.80
2023-03-17T04:07:41.822Z,1.80
2023-03-17T04:08:44.508Z,1.90
2023-03-17T04:09:49.300Z,1.90
2023-03-17T04:11:20.486Z,1.90
2023-03-17T04:12:24.609Z,1.90
2023-03-17T04:13:27.526Z,3.20
2023-03-17T04:14:31.686Z,1.90
2023-03-17T04:15:34.288Z,1.90
2023-03-17T04:16:37.866Z,1.90
2023-03-17T04:17:41.338Z,1.90
2023-03-17T04:18:45.012Z,2.70
2023-03-17T04:19:47.558Z,1.90
2023-03-17T04:20:52.738Z,3.30
2023-03-17T04:21:55.381Z,1.80
2023-03-17T04:22:59.085Z,1.80
2023-03-17T04:24:02.702Z,1.80
2023-03-17T04:25:07.625Z,1.80
2023-03-17T04:26:11.671Z,1.80
2023-03-17T04:27:17.397Z,1.80
2023-03-17T04:28:20.747Z,1.80
2023-03-17T04:29:24.271Z,2.10
2023-03-17T04:30:26.812Z,1.90
2023-03-17T04:31:30.801Z,3.00
2023-03-17T04:32:33.414Z,1.80
2023-03-17T04:33:37.365Z,1.80
2023-03-17T04:34:40.333Z,1.80
2023-03-17T04:35:44.037Z,1.80
2023-03-17T04:36:50.047Z,1.80
2023-03-17T04:37:53.034Z,1.80
2023-03-17T04:38:56.657Z,1.00
2023-03-17T04:39:59.072Z,1.80
2023-03-17T04:41:02.588Z,1.90
2023-03-17T04:42:06.647Z,1.80
2023-03-17T04:43:10.544Z,1.80
2023-03-17T04:44:14.887Z,1.80
2023-03-17T04:45:17.689Z,1.90
2023-03-17T04:46:21.338Z,1.80
2023-03-17T04:47:23.890Z,1.90
2023-03-17T04:48:27.682Z,1.90
2023-03-17T04:49:30.110Z,1.80
2023-03-17T04:50:34.496Z,1.80
2023-03-17T04:51:37.113Z,1.80
2023-03-17T04:52:42.304Z,1.70
2023-03-17T04:53:45.118Z,1.80
2023-03-17T04:54:48.730Z,1.90
2023-03-17T04:55:51.983Z,1.90
2023-03-17T04:56:55.362Z,1.90
2023-03-17T04:57:58.297Z,1.90
2023-03-17T04:59:01.805Z,2.10
2023-03-17T05:00:08.365Z,2.00
2023-03-17T05:01:12.052Z,2.00
2023-03-17T05:02:14.610Z,2.00
2023-03-17T05:03:26.715Z,2.00
2023-03-17T05:04:32.543Z,2.10
2023-03-17T05:05:36.597Z,2.20
2023-03-17T05:06:40.712Z,2.20
2023-03-17T05:07:44.988Z,2.30
2023-03-17T05:08:48.484Z,2.30
2023-03-17T05:09:51.940Z,2.50
2023-03-17T05:10:56.457Z,2.60
2023-03-17T05:11:59.101Z,2.70
2023-03-17T05:13:02.695Z,2.90
2023-03-17T05:14:05.323Z,3.10
2023-03-17T05:15:10.094Z,3.20
2023-03-17T05:16:13.107Z,3.40
2023-03-17T05:17:16.957Z,3.50
2023-03-17T05:18:24.002Z,3.80
2023-03-17T05:19:27.379Z,3.80
2023-03-17T05:20:30.190Z,4.00
2023-03-17T05:21:34.041Z,4.10
2023-03-17T05:22:36.885Z,4.40
2023-03-17T05:23:44.264Z,4.90
2023-03-17T05:24:47.774Z,5.40
2023-03-17T05:25:51.425Z,5.90
2023-03-17T05:26:54.053Z,6.50
2023-03-17T05:27:58.691Z,7.10
2023-03-17T05:29:01.620Z,7.60
2023-03-17T05:30:06.211Z,7.60
2023-03-17T05:31:10.917Z,8.60
2023-03-17T05:32:15.443Z,9.10
2023-03-17T05:33:17.807Z,9.40
2023-03-17T05:34:21.853Z,9.70
2023-03-17T05:35:24.477Z,9.90
2023-03-17T05:36:27.954Z,10.80
2023-03-17T05:37:30.563Z,10.10
2023-03-17T05:38:34.217Z,10.00
2023-03-17T05:39:37.980Z,9.70
2023-03-17T05:40:42.752Z,9.60
2023-03-17T05:41:47.133Z,9.30
2023-03-17T05:42:50.691Z,9.10
2023-03-17T05:43:54.513Z,8.90
2023-03-17T05:44:59.748Z,8.80
2023-03-17T05:46:03.916Z,8.60
2023-03-17T05:47:08.426Z,8.50
2023-03-17T05:48:13.258Z,8.40
2023-03-17T05:49:15.611Z,8.30
2023-03-17T05:50:19.289Z,9.00
2023-03-17T05:51:22.831Z,6.90
2023-03-17T05:52:27.133Z,8.20
2023-03-17T05:53:29.904Z,8.20
2023-03-17T05:54:33.623Z,8.10
2023-03-17T05:55:37.868Z,8.10
2023-03-17T05:56:42.854Z,8.10
2023-03-17T05:57:45.898Z,8.10
2023-03-17T05:58:49.422Z,8.10
2023-03-17T05:59:51.985Z,8.10
2023-03-17T06:00:55.739Z,8.00
2023-03-17T06:01:58.161Z,8.20
2023-03-17T06:03:02.038Z,8.20
2023-03-17T06:04:05.103Z,8.20
2023-03-17T06:05:09.526Z,8.30
2023-03-17T06:06:13.620Z,8.30
2023-03-17T06:07:17.906Z,9.00
2023-03-17T06:08:22.415Z,8.60
2023-03-17T06:09:25.152Z,8.60
2023-03-17T06:10:29.474Z,8.70
2023-03-17T06:11:33.532Z,8.70
2023-03-17T06:12:37.870Z,8.80
2023-03-17T06:13:41.809Z,9.00
2023-03-17T06:14:44.950Z,9.10
2023-03-17T06:15:52.666Z,9.20
2023-03-17T06:16:55.610Z,9.30
2023-03-17T06:17:59.419Z,10.10
2023-03-17T06:19:02.401Z,9.50
2023-03-17T06:20:09.202Z,9.60
2023-03-17T06:21:13.302Z,9.70
2023-03-17T06:22:15.640Z,9.70
2023-03-17T06:23:19.176Z,9.70
2023-03-17T06:24:21.939Z,9.70
2023-03-17T06:25:25.635Z,9.60
2023-03-17T06:26:28.640Z,9.40
2023-03-17T06:27:34.027Z,9.20
2023-03-17T06:28:37.756Z,8.90
2023-03-17T06:29:40.690Z,8.80
2023-03-17T06:30:44.884Z,8.60
2023-03-17T06:31:50.631Z,8.40
2023-03-17T06:32:55.042Z,7.30
2023-03-17T06:33:57.943Z,8.00
2023-03-17T06:35:01.862Z,7.30
2023-03-17T06:36:06.601Z,7.80
2023-03-17T06:37:11.822Z,7.70
2023-03-17T06:38:15.518Z,7.70
2023-03-17T06:39:18.277Z,7.80
2023-03-17T06:40:22.351Z,7.80
2023-03-17T06:41:26.105Z,7.90
2023-03-17T06:42:29.025Z,8.00
2023-03-17T06:43:33.976Z,8.10
2023-03-17T06:44:37.320Z,8.00
2023-03-17T06:45:41.661Z,8.00
2023-03-17T06:46:44.275Z,6.90
2023-03-17T06:47:47.712Z,7.70
2023-03-17T06:48:50.186Z,7.70
2023-03-17T06:49:53.880Z,7.60
2023-03-17T06:50:56.734Z,6.90
2023-03-17T06:52:00.934Z,7.40
2023-03-17T06:53:04.794Z,7.30
2023-03-17T06:54:09.715Z,7.20
2023-03-17T06:55:16.438Z,7.20
2023-03-17T06:56:29.512Z,7.20
2023-03-17T06:57:34.448Z,7.20
2023-03-17T06:58:38.219Z,7.20
2023-03-17T06:59:41.801Z,6.20
2023-03-17T07:00:45.554Z,7.40
2023-03-17T07:01:50.441Z,7.70
2023-03-17T07:02:53.827Z,7.90
2023-03-17T07:03:57.649Z,8.00
2023-03-17T07:05:00.865Z,8.40
2023-03-17T07:06:04.447Z,8.00
2023-03-17T07:07:08.536Z,7.60
2023-03-17T07:08:11.606Z,7.70
2023-03-17T07:09:15.675Z,7.70
2023-03-17T07:10:20.135Z,7.70
2023-03-17T07:11:23.932Z,7.60
2023-03-17T07:12:27.621Z,7.70
2023-03-17T07:13:32.622Z,7.80
2023-03-17T07:14:38.773Z,7.80
2023-03-17T07:15:42.986Z,7.90
2023-03-17T07:16:45.744Z,8.00
2023-03-17T07:17:49.605Z,8.10
2023-03-17T07:18:52.524Z,8.30
2023-03-17T07:19:56.256Z,8.40
2023-03-17T07:21:01.309Z,8.40
2023-03-17T07:22:03.820Z,8.60
2023-03-17T07:23:07.699Z,8.70
2023-03-17T07:24:11.617Z,8.90
2023-03-17T07:25:15.628Z,9.00
2023-03-17T07:26:17.943Z,9.10
2023-03-17T07:27:24.553Z,9.20
2023-03-17T07:28:28.292Z,9.30
2023-03-17T07:29:33.920Z,9.40
2023-03-17T07:30:39.212Z,9.50
2023-03-17T07:31:42.389Z,9.60
2023-03-17T07:32:46.094Z,9.80
2023-03-17T07:33:48.846Z,10.00
2023-03-17T07:34:52.690Z,10.20
2023-03-17T07:35:56.691Z,10.30
2023-03-17T07:36:59.492Z,10.30
2023-03-17T07:38:03.367Z,10.40
2023-03-17T07:39:06.062Z,10.60
2023-03-17T07:40:12.104Z,11.20
2023-03-17T07:41:14.519Z,10.80
2023-03-17T07:42:18.577Z,10.80
2023-03-17T07:43:22.586Z,10.70
2023-03-17T07:44:27.558Z,10.60
2023-03-17T07:45:31.696Z,10.60
2023-03-17T07:46:39.208Z,10.70
2023-03-17T07:47:41.701Z,10.80
2023-03-17T07:48:46.286Z,10.80
2023-03-17T07:49:49.121Z,10.80
2023-03-17T07:50:52.693Z,10.90
2023-03-17T07:51:55.584Z,10.90
2023-03-17T07:52:59.193Z,10.80
2023-03-17T07:54:04.138Z,10.70
2023-03-17T07:55:10.679Z,10.70
2023-03-17T07:56:15.487Z,10.60
2023-03-17T07:57:18.068Z,10.50
2023-03-17T07:58:23.253Z,10.50
2023-03-17T07:59:27.500Z,10.30
2023-03-17T08:00:30.940Z,10.20
2023-03-17T08:01:35.697Z,10.10
2023-03-17T08:02:41.442Z,10.10
2023-03-17T08:03:46.643Z,10.10
2023-03-17T08:04:52.521Z,10.00
2023-03-17T08:05:57.530Z,9.90
2023-03-17T08:07:01.495Z,9.90
2023-03-17T08:08:05.530Z,9.80
2023-03-17T08:09:11.128Z,9.60
2023-03-17T08:10:13.711Z,9.50
2023-03-17T08:11:17.727Z,9.50
2023-03-17T08:12:21.884Z,9.50
2023-03-17T08:13:24.902Z,9.60
2023-03-17T08:14:28.606Z,9.70
2023-03-17T08:15:31.510Z,9.80
2023-03-17T08:16:35.620Z,9.80
2023-03-17T08:17:42.178Z,9.80
2023-03-17T08:18:46.351Z,9.70
2023-03-17T08:19:48.979Z,9.70
2023-03-17T08:20:52.819Z,10.80
2023-03-17T08:21:55.529Z,9.60
2023-03-17T08:22:59.639Z,9.50
2023-03-17T08:24:04.651Z,9.40
2023-03-17T08:25:09.707Z,9.40
2023-03-17T08:26:14.351Z,9.40
2023-03-17T08:27:21.598Z,9.50
2023-03-17T08:28:25.866Z,9.50
2023-03-17T08:29:29.313Z,9.60
2023-03-17T08:30:33.885Z,9.70
2023-03-17T08:31:38.192Z,9.80
2023-03-17T08:32:42.196Z,9.90
2023-03-17T08:33:49.587Z,9.80
2023-03-17T08:34:55.774Z,9.80
2023-03-17T08:35:58.284Z,9.80
2023-03-17T08:37:02.802Z,10.00
2023-03-17T08:38:05.609Z,10.10
2023-03-17T08:39:10.590Z,10.10
2023-03-17T08:40:17.186Z,10.10
2023-03-17T08:41:23.891Z,10.00
2023-03-17T08:42:27.741Z,10.10
2023-03-17T08:43:30.237Z,10.10
2023-03-17T08:44:34.466Z,10.20
2023-03-17T08:45:39.188Z,10.20
2023-03-17T08:46:42.699Z,10.20
2023-03-17T08:47:48.312Z,10.20
2023-03-17T08:48:52.876Z,10.10
2023-03-17T08:49:56.715Z,9.90
2023-03-17T08:50:59.467Z,10.00
2023-03-17T08:52:03.576Z,10.00
2023-03-17T08:53:08.603Z,10.10
2023-03-17T08:54:11.983Z,10.00
2023-03-17T08:55:16.824Z,10.20
2023-03-17T08:56:19.681Z,10.10
2023-03-17T08:57:23.486Z,10.10
2023-03-17T08:58:26.017Z,10.40
2023-03-17T08:59:29.651Z,10.80
2023-03-17T09:00:33.150Z,11.00
2023-03-17T09:01:38.027Z,11.10
2023-03-17T09:02:45.270Z,11.30
2023-03-17T09:03:50.774Z,11.20
2023-03-17T09:04:54.285Z,11.30
2023-03-17T09:05:58.233Z,11.10
2023-03-17T09:07:04.100Z,11.00
2023-03-17T09:08:07.779Z,10.60
2023-03-17T09:09:11.341Z,11.10
2023-03-17T09:10:15.034Z,10.90
2023-03-17T09:11:21.526Z,11.10
2023-03-17T09:12:25.825Z,11.20
2023-03-17T09:13:28.817Z,11.30
2023-03-17T09:14:42.653Z,11.40
2023-03-17T09:15:46.386Z,11.40
2023-03-17T09:16:51.376Z,11.30
2023-03-17T09:17:54.196Z,11.40
2023-03-17T09:18:59.275Z,11.30
2023-03-17T09:20:01.735Z,10.60
2023-03-17T09:21:05.950Z,11.10
2023-03-17T09:22:13.456Z,11.00
2023-03-17T09:23:17.029Z,10.90
2023-03-17T09:24:19.672Z,10.80
2023-03-17T09:25:23.303Z,10.90
2023-03-17T09:26:26.539Z,10.90
2023-03-17T09:27:30.534Z,10.90
2023-03-17T09:28:33.956Z,10.90
2023-03-17T09:29:37.500Z,10.80
2023-03-17T09:30:42.744Z,12.20
2023-03-17T09:31:47.382Z,10.80
2023-03-17T09:32:49.962Z,10.70
2023-03-17T09:33:53.628Z,10.70
2023-03-17T09:34:59.204Z,9.60
2023-03-17T09:36:02.159Z,10.40
2023-03-17T09:37:05.810Z,9.50
2023-03-17T09:38:09.181Z,10.30
2023-03-17T09:39:13.118Z,10.20
2023-03-17T09:40:19.120Z,10.30
2023-03-17T09:41:49.571Z,10.30
2023-03-17T09:43:03.521Z,10.30
2023-03-17T09:44:17.033Z,10.50
2023-03-17T09:45:34.932Z,10.60
2023-03-17T09:46:51.447Z,10.70
2023-03-17T09:48:17.321Z,10.70
2023-03-17T09:49:26.154Z,10.80
2023-03-17T09:50:39.423Z,10.80
2023-03-17T09:51:46.879Z,10.80
2023-03-17T09:52:53.287Z,10.80
2023-03-17T09:54:03.596Z,10.70
2023-03-17T09:55:13.222Z,10.60
2023-03-17T09:56:20.264Z,10.50
2023-03-17T09:57:30.560Z,10.30
2023-03-17T09:58:35.925Z,11.60
2023-03-17T09:59:44.518Z,10.40
2023-03-17T10:00:47.985Z,10.50
2023-03-17T10:01:50.496Z,10.50
2023-03-17T10:02:55.077Z,10.50
2023-03-17T10:03:58.770Z,10.40
2023-03-17T10:05:15.255Z,10.30
2023-03-17T10:06:36.652Z,10.30
2023-03-17T10:07:48.551Z,10.40
2023-03-17T10:09:01.267Z,10.40
2023-03-17T10:10:15.185Z,11.00
2023-03-17T10:11:29.736Z,10.50
2023-03-17T10:12:48.488Z,10.60
2023-03-17T10:13:58.299Z,10.60
2023-03-17T10:15:06.950Z,10.50
2023-03-17T10:16:15.611Z,10.50
2023-03-17T10:17:21.292Z,10.40
2023-03-17T10:18:30.066Z,10.50
2023-03-17T10:19:40.845Z,10.70
2023-03-17T10:20:52.010Z,10.00
2023-03-17T10:22:02.371Z,10.90
2023-03-17T10:23:11.951Z,11.00
2023-03-17T10:24:16.733Z,11.10
2023-03-17T10:25:22.303Z,11.20
2023-03-17T10:26:34.846Z,11.30
2023-03-17T10:27:39.856Z,11.40
2023-03-17T10:28:43.514Z,11.30
2023-03-17T10:29:48.622Z,11.10
2023-03-17T10:30:51.617Z,11.00
2023-03-17T10:31:58.442Z,11.10
2023-03-17T10:33:07.255Z,11.20
2023-03-17T10:34:16.177Z,11.00
2023-03-17T10:35:22.298Z,10.90
2023-03-17T10:36:38.100Z,11.00
2023-03-17T10:37:43.952Z,10.50
2023-03-17T10:38:52.513Z,10.30
2023-03-17T10:39:59.883Z,10.20
2023-03-17T10:41:08.853Z,10.20
2023-03-17T10:42:15.582Z,10.20
2023-03-17T10:43:21.875Z,10.70
2023-03-17T10:44:40.588Z,10.70
2023-03-17T10:45:59.076Z,10.80
2023-03-17T10:47:02.237Z,11.00
2023-03-17T10:48:11.059Z,11.10
2023-03-17T10:49:18.252Z,11.20
2023-03-17T10:50:24.684Z,12.20
2023-03-17T10:51:31.767Z,11.30
2023-03-17T10:52:40.961Z,11.00
2023-03-17T10:53:45.468Z,10.90
2023-03-17T10:54:51.640Z,10.20
2023-03-17T10:55:59.533Z,11.30
2023-03-17T10:57:07.337Z,11.30
2023-03-17T10:58:19.402Z,11.20
2023-03-17T11:00:38.558Z,11.10
2023-03-17T11:01:47.398Z,11.10
2023-03-17T11:02:57.461Z,9.70
2023-03-17T11:04:03.040Z,11.00
2023-03-17T11:05:19.595Z,10.90
2023-03-17T11:06:34.102Z,10.90
2023-03-17T11:07:40.363Z,10.80
2023-03-17T11:08:49.384Z,10.80
2023-03-17T11:09:58.541Z,10.90
2023-03-17T11:11:09.065Z,10.80
2023-03-17T11:12:26.580Z,10.90
2023-03-17T11:13:30.609Z,9.80
2023-03-17T11:14:35.609Z,10.90
2023-03-17T11:15:45.260Z,10.80
2023-03-17T11:16:55.194Z,10.80
2023-03-17T11:18:01.464Z,10.80
2023-03-17T11:19:13.971Z,10.90
2023-03-17T11:20:39.318Z,10.90
2023-03-17T11:21:55.272Z,10.80
2023-03-17T11:23:06.426Z,10.80
2023-03-17T11:24:20.034Z,10.80
2023-03-17T11:25:24.196Z,10.80
2023-03-17T11:26:56.774Z,11.00
2023-03-17T11:28:16.931Z,11.10
2023-03-17T11:29:33.775Z,10.50
2023-03-17T11:30:44.072Z,11.10
2023-03-17T11:31:58.541Z,10.80
2023-03-17T11:33:13.175Z,10.70
2023-03-17T11:34:28.377Z,10.50
2023-03-17T11:35:51.565Z,10.40
2023-03-17T11:37:10.460Z,10.40
2023-03-17T11:38:21.731Z,10.30
2023-03-17T11:39:29.526Z,10.20
2023-03-17T11:40:39.331Z,10.10
2023-03-17T11:41:52.407Z,10.10
2023-03-17T11:43:11.411Z,10.10
2023-03-17T11:44:55.659Z,10.20
2023-03-17T11:46:10.524Z,10.40
2023-03-17T11:47:29.758Z,10.60
2023-03-17T11:48:46.108Z,10.60
2023-03-17T11:50:03.403Z,11.30
2023-03-17T11:51:20.353Z,10.50
2023-03-17T11:52:35.064Z,10.60
2023-03-17T11:54:00.023Z,10.50
2023-03-17T11:55:17.727Z,10.50
2023-03-17T11:56:25.378Z,10.40
2023-03-17T11:57:35.363Z,10.30
2023-03-17T11:58:44.404Z,10.30
2023-03-17T11:59:53.734Z,10.20
2023-03-17T12:01:01.826Z,10.30
2023-03-17T12:02:21.727Z,10.30
2023-03-17T12:03:39.152Z,10.30
2023-03-17T12:04:53.351Z,10.30
2023-03-17T12:06:03.066Z,10.30
2023-03-17T12:07:20.697Z,10.30
2023-03-17T12:08:34.448Z,10.20
2023-03-17T12:09:42.992Z,10.20
2023-03-17T12:10:52.990Z,10.70
2023-03-17T12:11:58.524Z,10.10
2023-03-17T12:13:09.616Z,10.00
2023-03-17T12:14:28.310Z,10.70
2023-03-17T12:15:37.764Z,10.00
2023-03-17T12:16:47.400Z,10.10
2023-03-17T12:17:57.611Z,10.10
2023-03-17T12:19:11.497Z,10.20
2023-03-17T12:20:20.586Z,10.10
2023-03-17T12:21:32.983Z,10.10
2023-03-17T12:22:44.120Z,10.00
2023-03-17T12:23:50.197Z,10.00
2023-03-17T12:25:10.755Z,9.00
2023-03-17T12:26:18.448Z,9.80
2023-03-17T12:27:28.806Z,11.30
2023-03-17T12:28:43.159Z,9.70
2023-03-17T12:29:52.285Z,9.70
2023-03-17T12:31:04.381Z,9.60
2023-03-17T12:32:18.695Z,9.50
2023-03-17T12:33:32.593Z,9.60
2023-03-17T12:34:44.790Z,9.60
2023-03-17T12:35:49.065Z,9.70
2023-03-17T12:36:53.099Z,9.70
2023-03-17T12:37:59.501Z,11.10
2023-03-17T12:39:10.312Z,10.80
2023-03-17T12:40:18.563Z,10.00
2023-03-17T12:41:38.467Z,10.00
2023-03-17T12:42:53.817Z,9.90
2023-03-17T12:44:07.145Z,9.90
2023-03-17T12:45:48.816Z,10.00
2023-03-17T12:47:23.145Z,10.00
2023-03-17T12:49:02.998Z,10.00
2023-03-17T12:50:40.994Z,10.00
2023-03-17T12:52:06.090Z,10.10
2023-03-17T12:53:30.275Z,10.10
2023-03-17T12:54:37.612Z,10.20
2023-03-17T12:55:43.124Z,10.10
2023-03-17T12:56:50.603Z,10.10
2023-03-17T12:58:02.153Z,10.10
2023-03-17T12:59:12.641Z,11.80
2023-03-17T13:00:25.278Z,10.10
2023-03-17T13:01:35.214Z,10.10
2023-03-17T13:02:39.520Z,10.10
2023-03-17T13:03:59.070Z,10.10
2023-03-17T13:05:10.446Z,10.00
2023-03-17T13:06:21.347Z,10.00
2023-03-17T13:07:28.572Z,11.10
2023-03-17T13:08:33.508Z,10.00
2023-03-17T13:09:45.210Z,9.90
2023-03-17T13:10:48.886Z,11.40
2023-03-17T13:11:54.137Z,9.80
2023-03-17T13:13:06.335Z,9.90
2023-03-17T13:14:25.635Z,9.90
2023-03-17T13:15:51.422Z,9.90
2023-03-17T13:17:06.447Z,9.90
2023-03-17T13:18:29.885Z,9.90
2023-03-17T13:19:34.497Z,9.80
2023-03-17T13:20:40.490Z,9.90
2023-03-17T13:21:52.993Z,9.90
2023-03-17T13:23:11.805Z,10.00
2023-03-17T13:24:47.532Z,9.40
2023-03-17T13:25:54.720Z,10.20
2023-03-17T13:27:05.494Z,10.20
2023-03-17T13:28:26.343Z,10.20
2023-03-17T13:29:49.012Z,10.10
2023-03-17T13:31:11.514Z,10.10
2023-03-17T13:32:39.606Z,9.40
2023-03-17T13:33:47.454Z,9.90
2023-03-17T13:34:52.859Z,10.00
2023-03-17T13:36:23.049Z,9.90
2023-03-17T13:37:33.924Z,9.80
2023-03-17T13:39:19.660Z,9.70
2023-03-17T13:40:40.681Z,9.50
2023-03-17T13:42:05.512Z,9.50
2023-03-17T13:43:42.990Z,11.00
2023-03-17T13:45:14.836Z,9.40
2023-03-17T13:46:26.670Z,9.40
2023-03-17T13:47:36.660Z,9.50
2023-03-17T13:48:42.638Z,9.50
2023-03-17T13:49:51.954Z,9.50
2023-03-17T13:51:00.355Z,9.10
2023-03-17T13:52:14.140Z,9.60
2023-03-17T13:53:18.135Z,9.60
2023-03-17T13:54:31.770Z,9.70
2023-03-17T13:55:42.047Z,9.70
2023-03-17T13:56:49.328Z,9.70
2023-03-17T13:58:16.604Z,8.40
2023-03-17T13:59:24.727Z,9.70
2023-03-17T14:00:33.099Z,9.60
2023-03-17T14:01:43.024Z,9.50
2023-03-17T14:02:50.135Z,9.50
2023-03-17T14:03:57.662Z,10.40
2023-03-17T14:05:03.215Z,9.60
2023-03-17T14:06:12.138Z,9.70
2023-03-17T14:07:23.994Z,9.70
2023-03-17T14:08:32.727Z,9.70
2023-03-17T14:09:39.998Z,9.80
2023-03-17T14:10:44.321Z,9.90
2023-03-17T14:11:52.555Z,9.90
2023-03-17T14:13:04.696Z,9.10
2023-03-17T14:14:33.564Z,10.00
2023-03-17T14:15:48.270Z,10.00
2023-03-17T14:16:58.442Z,9.80
2023-03-17T14:18:11.033Z,9.90
2023-03-17T14:19:21.684Z,9.80
2023-03-17T14:20:27.297Z,9.80
2023-03-17T14:21:32.714Z,9.80
2023-03-17T14:22:45.151Z,9.80
2023-03-17T14:23:55.405Z,9.80
2023-03-17T14:25:03.848Z,10.80
2023-03-17T14:26:12.970Z,9.70
2023-03-17T14:27:15.936Z,9.70
2023-03-17T14:28:25.500Z,9.60
2023-03-17T14:29:34.084Z,9.70
2023-03-17T14:30:37.979Z,9.70
2023-03-17T14:31:40.800Z,9.70
2023-03-17T14:32:49.137Z,9.70
2023-03-17T14:33:56.479Z,9.80
2023-03-17T14:34:59.513Z,9.80
2023-03-17T14:36:05.716Z,9.70
2023-03-17T14:37:13.262Z,9.80
2023-03-17T14:38:22.101Z,9.80
2023-03-17T14:39:26.230Z,9.70
2023-03-17T14:40:37.001Z,9.70
2023-03-17T14:41:39.486Z,9.60
2023-03-17T14:42:43.292Z,9.60
2023-03-17T14:43:48.413Z,9.60
2023-03-17T14:45:02.324Z,9.50
2023-03-17T14:46:07.953Z,9.40
2023-03-17T14:47:20.925Z,9.30
2023-03-17T14:48:28.715Z,9.20
2023-03-17T14:49:33.709Z,9.20
2023-03-17T14:50:36.548Z,9.20
2023-03-17T14:51:42.849Z,9.20
2023-03-17T14:52:45.579Z,9.10
2023-03-17T14:53:50.133Z,9.10
2023-03-17T14:54:55.672Z,9.20
2023-03-17T14:55:59.410Z,9.10
2023-03-17T14:57:05.531Z,7.30
2023-03-17T14:58:11.258Z,9.10
2023-03-17T14:59:21.393Z,9.10
2023-03-17T15:00:38.207Z,9.70
2023-03-17T15:01:48.264Z,9.20
2023-03-17T15:02:56.535Z,9.20
2023-03-17T15:04:09.927Z,9.20
2023-03-17T15:05:29.680Z,11.10
2023-03-17T15:06:36.829Z,8.60
2023-03-17T15:07:42.625Z,9.00
2023-03-17T15:08:48.164Z,8.90
2023-03-17T15:10:03.221Z,9.20
2023-03-17T15:11:08.715Z,8.90
2023-03-17T15:12:20.435Z,8.90
2023-03-17T15:13:26.539Z,8.90
2023-03-17T15:14:33.538Z,8.90
2023-03-17T15:15:41.645Z,8.90
2023-03-17T15:16:49.873Z,8.90
2023-03-17T15:17:57.529Z,9.40
2023-03-17T15:19:07.368Z,8.80
2023-03-17T15:20:20.076Z,8.20
2023-03-17T15:21:27.913Z,8.80
2023-03-17T15:22:33.839Z,8.70
2023-03-17T15:23:41.313Z,8.70
2023-03-17T15:24:45.109Z,8.60
2023-03-17T15:25:51.448Z,8.60
2023-03-17T15:27:07.124Z,8.60
2023-03-17T15:28:14.558Z,8.60
2023-03-17T15:29:18.500Z,8.60
2023-03-17T15:30:22.503Z,8.60
2023-03-17T15:31:30.106Z,8.50
2023-03-17T15:32:33.937Z,8.50
2023-03-17T15:33:39.211Z,8.50
2023-03-17T15:34:43.714Z,8.60
2023-03-17T15:35:46.563Z,8.60
2023-03-17T15:36:50.767Z,8.60
2023-03-17T15:37:55.676Z,8.60
2023-03-17T15:38:58.354Z,7.40
2023-03-17T15:40:05.750Z,8.70
2023-03-17T15:41:08.738Z,8.70
2023-03-17T15:42:12.449Z,8.70
2023-03-17T15:43:16.507Z,8.60
2023-03-17T15:44:20.045Z,8.60
2023-03-17T15:45:23.881Z,8.60
2023-03-17T15:46:32.297Z,10.10
2023-03-17T15:47:40.188Z,8.60
2023-03-17T15:48:43.044Z,8.60
2023-03-17T15:49:48.823Z,8.70
2023-03-17T15:50:52.907Z,8.60
2023-03-17T15:51:56.587Z,8.60
2023-03-17T15:52:59.048Z,8.70
2023-03-17T15:54:02.493Z,8.70
2023-03-17T15:55:14.669Z,9.80
2023-03-17T15:56:21.939Z,8.70
2023-03-17T15:57:25.560Z,8.60
2023-03-17T15:58:29.235Z,8.60
2023-03-17T15:59:32.675Z,8.60
2023-03-17T16:00:36.555Z,8.60
2023-03-17T16:01:42.102Z,8.60
2023-03-17T16:02:49.341Z,8.30
2023-03-17T16:03:53.984Z,8.50
2023-03-17T16:04:57.581Z,8.60
2023-03-17T16:06:02.760Z,8.60
2023-03-17T16:07:12.665Z,9.10
2023-03-17T16:08:18.099Z,8.50
2023-03-17T16:09:21.722Z,8.50
2023-03-17T16:10:26.995Z,8.50
2023-03-17T16:11:32.860Z,8.50
2023-03-17T16:12:37.256Z,10.50
2023-03-17T16:13:40.919Z,8.60
2023-03-17T16:14:44.213Z,8.70
2023-03-17T16:15:55.119Z,8.60
2023-03-17T16:16:59.227Z,8.60
2023-03-17T16:18:08.766Z,8.50
2023-03-17T16:19:20.189Z,8.50
2023-03-17T16:20:26.377Z,8.50
2023-03-17T16:21:31.921Z,8.50
2023-03-17T16:22:40.239Z,8.50
2023-03-17T16:23:44.236Z,8.50
2023-03-17T16:24:46.927Z,7.90
2023-03-17T16:25:53.949Z,10.20
2023-03-17T16:26:59.033Z,9.20
2023-03-17T16:28:13.479Z,8.40
2023-03-17T16:29:18.542Z,8.40
2023-03-17T16:30:24.520Z,8.40
2023-03-17T16:31:31.072Z,8.40
2023-03-17T16:32:37.668Z,8.50
2023-03-17T16:33:42.929Z,8.40
2023-03-17T16:34:45.733Z,8.30
2023-03-17T16:35:49.989Z,8.30
2023-03-17T16:36:54.635Z,8.20
2023-03-17T16:37:58.603Z,9.90
2023-03-17T16:39:03.554Z,8.20
2023-03-17T16:40:18.240Z,8.10
2023-03-17T16:41:24.497Z,8.00
2023-03-17T16:42:28.389Z,8.00
2023-03-17T16:43:35.696Z,8.00
2023-03-17T16:44:38.365Z,7.90
2023-03-17T16:45:43.401Z,8.00
2023-03-17T16:46:46.351Z,8.00
2023-03-17T16:47:52.711Z,8.00
2023-03-17T16:48:56.207Z,8.00
2023-03-17T16:49:59.711Z,7.90
2023-03-17T16:51:03.447Z,8.00
2023-03-17T16:52:11.054Z,8.00
2023-03-17T16:53:13.550Z,8.00
2023-03-17T16:54:17.151Z,8.00
2023-03-17T16:55:21.805Z,8.00
2023-03-17T16:56:28.564Z,8.00
2023-03-17T16:57:33.402Z,8.00
2023-03-17T16:58:37.862Z,8.00
2023-03-17T16:59:40.649Z,7.80
2023-03-17T17:00:44.936Z,8.10
2023-03-17T17:01:48.531Z,8.10
2023-03-17T17:02:53.284Z,8.00
2023-03-17T17:03:57.414Z,8.00
2023-03-17T17:05:01.988Z,8.00
2023-03-17T17:06:06.154Z,7.90
2023-03-17T17:07:09.297Z,7.90
2023-03-17T17:08:13.289Z,7.90
2023-03-17T17:09:16.193Z,7.90